sensor_id;sensor_type;location;lat;lon;timestamp;P1;durP1;ratioP1;P2;durP2;ratioP2
76152;SDS011;64897;50.816;4.422;2022-11-20T00:01:15;30.73;;;16.38;;
76152;SDS011;64897;50.816;4.422;2022-11-20T00:03:48;27.60;;;17.02;;
76152;SDS011;64897;50.816;4.422;2022-11-20T00:06:16;27.05;;;15.48;;
76152;SDS011;64897;50.816;4.422;2022-11-20T00:08:44;24.23;;;15.40;;
76152;SDS011;64897;50.816;4.422;2022-11-20T00:11:15;24.33;;;15.10;;
76152;SDS011;64897;50.816;4.422;2022-11-20T00:13:47;21.60;;;14.05;;
76152;SDS011;64897;50.816;4.422;2022-11-20T00:16:16;23.15;;;14.57;;
76152;SDS011;64897;50.816;4.422;2022-11-20T00:18:45;26.02;;;16.38;;
76152;SDS011;64897;50.816;4.422;2022-11-20T00:21:15;24.85;;;14.70;;
76152;SDS011;64897;50.816;4.422;2022-11-20T00:23:44;23.02;;;14.07;;
76152;SDS011;64897;50.816;4.422;2022-11-20T00:26:13;22.60;;;14.18;;
76152;SDS011;64897;50.816;4.422;2022-11-20T00:28:41;24.00;;;15.05;;
76152;SDS011;64897;50.816;4.422;2022-11-20T00:31:13;26.20;;;15.10;;
76152;SDS011;64897;50.816;4.422;2022-11-20T00:33:41;21.52;;;13.38;;
76152;SDS011;64897;50.816;4.422;2022-11-20T00:36:10;23.65;;;14.30;;
76152;SDS011;64897;50.816;4.422;2022-11-20T00:38:38;21.55;;;13.40;;
76152;SDS011;64897;50.816;4.422;2022-11-20T00:41:07;24.23;;;12.70;;
76152;SDS011;64897;50.816;4.422;2022-11-20T00:43:35;21.55;;;13.55;;
76152;SDS011;64897;50.816;4.422;2022-11-20T00:46:06;22.63;;;14.10;;
76152;SDS011;64897;50.816;4.422;2022-11-20T00:48:34;21.02;;;13.15;;
76152;SDS011;64897;50.816;4.422;2022-11-20T00:51:01;21.25;;;13.57;;
76152;SDS011;64897;50.816;4.422;2022-11-20T00:53:28;22.17;;;13.38;;
76152;SDS011;64897;50.816;4.422;2022-11-20T00:55:57;21.02;;;12.02;;
76152;SDS011;64897;50.816;4.422;2022-11-20T00:58:29;20.90;;;12.20;;
76152;SDS011;64897;50.816;4.422;2022-11-20T01:01:01;19.63;;;12.18;;
76152;SDS011;64897;50.816;4.422;2022-11-20T01:03:36;20.27;;;12.27;;
76152;SDS011;64897;50.816;4.422;2022-11-20T01:06:09;22.20;;;13.40;;
76152;SDS011;64897;50.816;4.422;2022-11-20T01:08:37;17.10;;;11.40;;
76152;SDS011;64897;50.816;4.422;2022-11-20T01:11:07;19.05;;;12.02;;
76152;SDS011;64897;50.816;4.422;2022-11-20T01:13:38;19.05;;;12.25;;
76152;SDS011;64897;50.816;4.422;2022-11-20T01:16:16;19.20;;;12.60;;
76152;SDS011;64897;50.816;4.422;2022-11-20T01:18:45;18.00;;;12.13;;
76152;SDS011;64897;50.816;4.422;2022-11-20T01:21:15;19.55;;;12.35;;
76152;SDS011;64897;50.816;4.422;2022-11-20T01:23:44;18.35;;;11.85;;
76152;SDS011;64897;50.816;4.422;2022-11-20T01:26:13;16.83;;;11.32;;
76152;SDS011;64897;50.816;4.422;2022-11-20T01:28:42;19.58;;;11.82;;
76152;SDS011;64897;50.816;4.422;2022-11-20T01:33:40;17.80;;;11.65;;
76152;SDS011;64897;50.816;4.422;2022-11-20T01:36:08;16.75;;;11.65;;
76152;SDS011;64897;50.816;4.422;2022-11-20T01:38:35;17.17;;;11.00;;
76152;SDS011;64897;50.816;4.422;2022-11-20T01:41:02;22.05;;;11.18;;
76152;SDS011;64897;50.816;4.422;2022-11-20T01:43:29;16.13;;;10.85;;
76152;SDS011;64897;50.816;4.422;2022-11-20T01:45:58;16.25;;;10.63;;
76152;SDS011;64897;50.816;4.422;2022-11-20T01:54:29;15.35;;;10.15;;
76152;SDS011;64897;50.816;4.422;2022-11-20T01:57:05;19.05;;;10.57;;
76152;SDS011;64897;50.816;4.422;2022-11-20T01:59:34;16.27;;;10.07;;
76152;SDS011;64897;50.816;4.422;2022-11-20T02:02:05;15.10;;;10.07;;
76152;SDS011;64897;50.816;4.422;2022-11-20T02:04:32;17.83;;;10.38;;
76152;SDS011;64897;50.816;4.422;2022-11-20T02:07:00;17.33;;;10.65;;
76152;SDS011;64897;50.816;4.422;2022-11-20T02:09:27;14.45;;;10.27;;
76152;SDS011;64897;50.816;4.422;2022-11-20T02:11:54;14.40;;;10.60;;
76152;SDS011;64897;50.816;4.422;2022-11-20T02:14:21;16.70;;;10.50;;
76152;SDS011;64897;50.816;4.422;2022-11-20T02:16:49;17.90;;;10.00;;
76152;SDS011;64897;50.816;4.422;2022-11-20T02:19:27;13.93;;;10.05;;
76152;SDS011;64897;50.816;4.422;2022-11-20T02:22:00;14.02;;;10.10;;
76152;SDS011;64897;50.816;4.422;2022-11-20T02:24:31;15.60;;;10.50;;
76152;SDS011;64897;50.816;4.422;2022-11-20T02:27:10;14.57;;;10.48;;
76152;SDS011;64897;50.816;4.422;2022-11-20T02:32:18;15.35;;;10.70;;
76152;SDS011;64897;50.816;4.422;2022-11-20T02:34:48;15.23;;;10.15;;
76152;SDS011;64897;50.816;4.422;2022-11-20T02:37:14;13.25;;;9.60;;
76152;SDS011;64897;50.816;4.422;2022-11-20T02:39:42;16.55;;;10.48;;
76152;SDS011;64897;50.816;4.422;2022-11-20T02:42:11;15.10;;;10.60;;
76152;SDS011;64897;50.816;4.422;2022-11-20T02:44:38;15.05;;;9.88;;
76152;SDS011;64897;50.816;4.422;2022-11-20T02:47:04;13.68;;;9.45;;
76152;SDS011;64897;50.816;4.422;2022-11-20T02:49:31;13.98;;;9.18;;
76152;SDS011;64897;50.816;4.422;2022-11-20T02:51:58;14.18;;;10.43;;
76152;SDS011;64897;50.816;4.422;2022-11-20T02:54:25;12.65;;;9.23;;
76152;SDS011;64897;50.816;4.422;2022-11-20T02:56:52;13.88;;;9.73;;
76152;SDS011;64897;50.816;4.422;2022-11-20T02:59:19;15.05;;;9.15;;
76152;SDS011;64897;50.816;4.422;2022-11-20T03:01:46;12.43;;;8.57;;
76152;SDS011;64897;50.816;4.422;2022-11-20T03:04:12;14.32;;;10.13;;
76152;SDS011;64897;50.816;4.422;2022-11-20T03:06:39;11.25;;;8.35;;
76152;SDS011;64897;50.816;4.422;2022-11-20T03:09:06;13.95;;;9.25;;
76152;SDS011;64897;50.816;4.422;2022-11-20T03:11:32;14.75;;;9.45;;
76152;SDS011;64897;50.816;4.422;2022-11-20T03:14:03;13.82;;;9.35;;
76152;SDS011;64897;50.816;4.422;2022-11-20T03:16:30;13.43;;;9.98;;
76152;SDS011;64897;50.816;4.422;2022-11-20T03:18:58;12.32;;;8.80;;
76152;SDS011;64897;50.816;4.422;2022-11-20T03:21:25;12.23;;;9.07;;
76152;SDS011;64897;50.816;4.422;2022-11-20T03:23:53;15.05;;;9.15;;
76152;SDS011;64897;50.816;4.422;2022-11-20T03:26:21;12.70;;;8.68;;
76152;SDS011;64897;50.816;4.422;2022-11-20T03:28:54;12.55;;;8.68;;
76152;SDS011;64897;50.816;4.422;2022-11-20T03:31:23;15.25;;;9.30;;
76152;SDS011;64897;50.816;4.422;2022-11-20T03:33:52;13.70;;;8.73;;
76152;SDS011;64897;50.816;4.422;2022-11-20T03:36:21;13.50;;;9.60;;
76152;SDS011;64897;50.816;4.422;2022-11-20T03:38:48;14.23;;;9.38;;
76152;SDS011;64897;50.816;4.422;2022-11-20T03:41:19;13.75;;;9.07;;
76152;SDS011;64897;50.816;4.422;2022-11-20T03:43:48;12.35;;;8.52;;
76152;SDS011;64897;50.816;4.422;2022-11-20T03:46:19;12.65;;;8.88;;
76152;SDS011;64897;50.816;4.422;2022-11-20T03:48:46;16.15;;;9.68;;
76152;SDS011;64897;50.816;4.422;2022-11-20T03:51:15;12.50;;;8.38;;
76152;SDS011;64897;50.816;4.422;2022-11-20T03:53:43;13.20;;;8.52;;
76152;SDS011;64897;50.816;4.422;2022-11-20T03:56:11;14.65;;;9.60;;
76152;SDS011;64897;50.816;4.422;2022-11-20T03:58:39;12.90;;;9.13;;
76152;SDS011;64897;50.816;4.422;2022-11-20T04:03:38;13.43;;;8.77;;
76152;SDS011;64897;50.816;4.422;2022-11-20T04:06:10;12.93;;;8.57;;
76152;SDS011;64897;50.816;4.422;2022-11-20T04:08:39;13.73;;;8.65;;
76152;SDS011;64897;50.816;4.422;2022-11-20T04:11:14;11.32;;;8.20;;
76152;SDS011;64897;50.816;4.422;2022-11-20T04:13:45;12.65;;;8.00;;
76152;SDS011;64897;50.816;4.422;2022-11-20T04:18:40;11.95;;;8.43;;
76152;SDS011;64897;50.816;4.422;2022-11-20T04:21:07;13.27;;;8.80;;
76152;SDS011;64897;50.816;4.422;2022-11-20T04:23:33;13.80;;;10.10;;
76152;SDS011;64897;50.816;4.422;2022-11-20T04:26:10;12.02;;;8.05;;
76152;SDS011;64897;50.816;4.422;2022-11-20T04:28:37;12.98;;;9.50;;
76152;SDS011;64897;50.816;4.422;2022-11-20T04:31:08;12.73;;;8.57;;
76152;SDS011;64897;50.816;4.422;2022-11-20T04:33:40;13.95;;;8.43;;
76152;SDS011;64897;50.816;4.422;2022-11-20T04:38:37;13.88;;;8.82;;
76152;SDS011;64897;50.816;4.422;2022-11-20T04:41:04;12.75;;;8.73;;
76152;SDS011;64897;50.816;4.422;2022-11-20T04:43:32;11.48;;;8.05;;
76152;SDS011;64897;50.816;4.422;2022-11-20T04:46:00;12.00;;;8.38;;
76152;SDS011;64897;50.816;4.422;2022-11-20T04:48:27;12.85;;;8.10;;
76152;SDS011;64897;50.816;4.422;2022-11-20T04:50:55;12.93;;;8.65;;
76152;SDS011;64897;50.816;4.422;2022-11-20T04:53:22;13.30;;;7.97;;
76152;SDS011;64897;50.816;4.422;2022-11-20T04:55:49;11.63;;;8.20;;
76152;SDS011;64897;50.816;4.422;2022-11-20T04:58:16;13.52;;;8.60;;
76152;SDS011;64897;50.816;4.422;2022-11-20T05:00:43;12.20;;;7.82;;
76152;SDS011;64897;50.816;4.422;2022-11-20T05:03:09;13.07;;;8.20;;
76152;SDS011;64897;50.816;4.422;2022-11-20T05:05:36;11.43;;;7.47;;
76152;SDS011;64897;50.816;4.422;2022-11-20T05:08:03;12.57;;;8.05;;
76152;SDS011;64897;50.816;4.422;2022-11-20T05:10:30;13.32;;;8.90;;
76152;SDS011;64897;50.816;4.422;2022-11-20T05:12:56;12.60;;;8.38;;
76152;SDS011;64897;50.816;4.422;2022-11-20T05:15:23;12.10;;;8.27;;
76152;SDS011;64897;50.816;4.422;2022-11-20T05:17:50;12.60;;;8.07;;
76152;SDS011;64897;50.816;4.422;2022-11-20T05:20:18;11.90;;;7.70;;
76152;SDS011;64897;50.816;4.422;2022-11-20T05:22:45;12.63;;;8.25;;
76152;SDS011;64897;50.816;4.422;2022-11-20T05:25:12;12.25;;;8.73;;
76152;SDS011;64897;50.816;4.422;2022-11-20T05:27:38;15.48;;;8.55;;
76152;SDS011;64897;50.816;4.422;2022-11-20T05:30:05;13.38;;;9.05;;
76152;SDS011;64897;50.816;4.422;2022-11-20T05:32:33;12.48;;;8.50;;
76152;SDS011;64897;50.816;4.422;2022-11-20T05:34:59;13.23;;;7.93;;
76152;SDS011;64897;50.816;4.422;2022-11-20T05:37:26;11.27;;;8.13;;
76152;SDS011;64897;50.816;4.422;2022-11-20T05:39:53;12.80;;;7.53;;
76152;SDS011;64897;50.816;4.422;2022-11-20T05:42:19;12.13;;;8.45;;
76152;SDS011;64897;50.816;4.422;2022-11-20T05:44:58;11.75;;;8.57;;
76152;SDS011;64897;50.816;4.422;2022-11-20T05:47:27;12.65;;;7.90;;
76152;SDS011;64897;50.816;4.422;2022-11-20T05:49:56;13.45;;;7.88;;
76152;SDS011;64897;50.816;4.422;2022-11-20T05:52:23;12.60;;;7.65;;
76152;SDS011;64897;50.816;4.422;2022-11-20T05:54:49;13.90;;;7.75;;
76152;SDS011;64897;50.816;4.422;2022-11-20T05:57:16;12.50;;;7.85;;
76152;SDS011;64897;50.816;4.422;2022-11-20T05:59:43;12.68;;;8.38;;
76152;SDS011;64897;50.816;4.422;2022-11-20T06:02:09;14.65;;;8.23;;
76152;SDS011;64897;50.816;4.422;2022-11-20T06:04:36;13.32;;;8.25;;
76152;SDS011;64897;50.816;4.422;2022-11-20T06:07:04;11.68;;;7.50;;
76152;SDS011;64897;50.816;4.422;2022-11-20T06:09:32;11.60;;;7.40;;
76152;SDS011;64897;50.816;4.422;2022-11-20T06:11:59;11.75;;;7.78;;
76152;SDS011;64897;50.816;4.422;2022-11-20T06:14:26;12.65;;;7.97;;
76152;SDS011;64897;50.816;4.422;2022-11-20T06:16:52;10.98;;;7.20;;
76152;SDS011;64897;50.816;4.422;2022-11-20T06:19:19;10.50;;;7.47;;
76152;SDS011;64897;50.816;4.422;2022-11-20T06:21:47;12.75;;;7.97;;
76152;SDS011;64897;50.816;4.422;2022-11-20T06:24:15;12.50;;;7.82;;
76152;SDS011;64897;50.816;4.422;2022-11-20T06:26:42;13.23;;;8.13;;
76152;SDS011;64897;50.816;4.422;2022-11-20T06:29:09;13.98;;;8.63;;
76152;SDS011;64897;50.816;4.422;2022-11-20T06:31:36;13.25;;;8.45;;
76152;SDS011;64897;50.816;4.422;2022-11-20T06:34:06;13.25;;;8.88;;
76152;SDS011;64897;50.816;4.422;2022-11-20T06:39:00;13.45;;;7.72;;
76152;SDS011;64897;50.816;4.422;2022-11-20T06:41:29;14.30;;;8.88;;
76152;SDS011;64897;50.816;4.422;2022-11-20T06:43:55;12.77;;;8.32;;
76152;SDS011;64897;50.816;4.422;2022-11-20T06:46:22;15.15;;;8.65;;
76152;SDS011;64897;50.816;4.422;2022-11-20T06:48:49;14.40;;;7.72;;
76152;SDS011;64897;50.816;4.422;2022-11-20T06:51:16;13.65;;;8.00;;
76152;SDS011;64897;50.816;4.422;2022-11-20T06:53:43;11.20;;;7.85;;
76152;SDS011;64897;50.816;4.422;2022-11-20T06:56:10;12.35;;;8.27;;
76152;SDS011;64897;50.816;4.422;2022-11-20T06:58:36;13.88;;;8.52;;
76152;SDS011;64897;50.816;4.422;2022-11-20T07:01:07;14.80;;;8.68;;
76152;SDS011;64897;50.816;4.422;2022-11-20T07:03:36;14.25;;;8.32;;
76152;SDS011;64897;50.816;4.422;2022-11-20T07:06:03;12.80;;;7.80;;
76152;SDS011;64897;50.816;4.422;2022-11-20T07:08:31;12.63;;;8.75;;
76152;SDS011;64897;50.816;4.422;2022-11-20T07:10:59;14.55;;;9.00;;
76152;SDS011;64897;50.816;4.422;2022-11-20T07:13:27;14.32;;;8.38;;
76152;SDS011;64897;50.816;4.422;2022-11-20T07:15:54;13.23;;;8.57;;
76152;SDS011;64897;50.816;4.422;2022-11-20T07:18:24;15.23;;;8.77;;
76152;SDS011;64897;50.816;4.422;2022-11-20T07:20:51;15.13;;;8.55;;
76152;SDS011;64897;50.816;4.422;2022-11-20T07:23:18;15.68;;;8.65;;
76152;SDS011;64897;50.816;4.422;2022-11-20T07:25:45;13.95;;;8.23;;
76152;SDS011;64897;50.816;4.422;2022-11-20T07:28:11;15.82;;;8.23;;
76152;SDS011;64897;50.816;4.422;2022-11-20T07:30:39;14.68;;;8.73;;
76152;SDS011;64897;50.816;4.422;2022-11-20T07:33:05;14.48;;;8.68;;
76152;SDS011;64897;50.816;4.422;2022-11-20T07:35:32;12.63;;;8.25;;
76152;SDS011;64897;50.816;4.422;2022-11-20T07:37:59;15.88;;;8.98;;
76152;SDS011;64897;50.816;4.422;2022-11-20T07:40:26;15.40;;;8.52;;
76152;SDS011;64897;50.816;4.422;2022-11-20T07:42:53;16.85;;;9.05;;
76152;SDS011;64897;50.816;4.422;2022-11-20T07:45:21;13.35;;;8.18;;
76152;SDS011;64897;50.816;4.422;2022-11-20T07:47:50;14.40;;;8.82;;
76152;SDS011;64897;50.816;4.422;2022-11-20T07:50:17;16.58;;;9.02;;
76152;SDS011;64897;50.816;4.422;2022-11-20T07:52:44;13.52;;;8.20;;
76152;SDS011;64897;50.816;4.422;2022-11-20T07:55:11;14.82;;;8.88;;
76152;SDS011;64897;50.816;4.422;2022-11-20T07:57:38;15.68;;;8.38;;
76152;SDS011;64897;50.816;4.422;2022-11-20T08:00:05;13.93;;;8.45;;
76152;SDS011;64897;50.816;4.422;2022-11-20T08:02:38;15.27;;;8.52;;
76152;SDS011;64897;50.816;4.422;2022-11-20T08:05:07;15.00;;;9.38;;
76152;SDS011;64897;50.816;4.422;2022-11-20T08:07:35;14.80;;;8.90;;
76152;SDS011;64897;50.816;4.422;2022-11-20T08:10:03;14.27;;;9.52;;
76152;SDS011;64897;50.816;4.422;2022-11-20T08:12:30;13.65;;;8.05;;
76152;SDS011;64897;50.816;4.422;2022-11-20T08:15:15;18.27;;;8.65;;
76152;SDS011;64897;50.816;4.422;2022-11-20T08:17:42;14.70;;;7.75;;
76152;SDS011;64897;50.816;4.422;2022-11-20T08:20:09;18.52;;;10.05;;
76152;SDS011;64897;50.816;4.422;2022-11-20T08:22:36;17.08;;;9.23;;
76152;SDS011;64897;50.816;4.422;2022-11-20T08:25:03;13.05;;;7.78;;
76152;SDS011;64897;50.816;4.422;2022-11-20T08:27:31;14.18;;;8.48;;
76152;SDS011;64897;50.816;4.422;2022-11-20T08:29:58;15.23;;;9.07;;
76152;SDS011;64897;50.816;4.422;2022-11-20T08:32:25;16.30;;;9.05;;
76152;SDS011;64897;50.816;4.422;2022-11-20T08:34:51;14.20;;;8.40;;
76152;SDS011;64897;50.816;4.422;2022-11-20T08:37:18;12.82;;;8.07;;
76152;SDS011;64897;50.816;4.422;2022-11-20T08:39:45;14.02;;;8.43;;
76152;SDS011;64897;50.816;4.422;2022-11-20T08:42:12;16.23;;;8.70;;
76152;SDS011;64897;50.816;4.422;2022-11-20T08:44:38;14.88;;;8.75;;
76152;SDS011;64897;50.816;4.422;2022-11-20T08:47:05;15.80;;;8.55;;
76152;SDS011;64897;50.816;4.422;2022-11-20T08:49:32;14.98;;;9.27;;
76152;SDS011;64897;50.816;4.422;2022-11-20T08:51:59;14.57;;;8.93;;
76152;SDS011;64897;50.816;4.422;2022-11-20T08:54:26;15.70;;;8.30;;
76152;SDS011;64897;50.816;4.422;2022-11-20T08:56:52;17.10;;;9.82;;
76152;SDS011;64897;50.816;4.422;2022-11-20T08:59:19;17.40;;;9.55;;
76152;SDS011;64897;50.816;4.422;2022-11-20T09:01:46;13.18;;;8.55;;
76152;SDS011;64897;50.816;4.422;2022-11-20T09:04:13;16.02;;;10.05;;
76152;SDS011;64897;50.816;4.422;2022-11-20T09:06:40;16.90;;;9.18;;
76152;SDS011;64897;50.816;4.422;2022-11-20T09:09:06;15.93;;;8.85;;
76152;SDS011;64897;50.816;4.422;2022-11-20T09:11:36;13.43;;;7.80;;
76152;SDS011;64897;50.816;4.422;2022-11-20T09:14:02;15.00;;;8.07;;
76152;SDS011;64897;50.816;4.422;2022-11-20T09:16:30;14.73;;;8.60;;
76152;SDS011;64897;50.816;4.422;2022-11-20T09:18:56;15.52;;;8.82;;
76152;SDS011;64897;50.816;4.422;2022-11-20T09:21:23;17.83;;;8.73;;
76152;SDS011;64897;50.816;4.422;2022-11-20T09:23:50;13.98;;;7.75;;
76152;SDS011;64897;50.816;4.422;2022-11-20T09:26:16;12.38;;;8.32;;
76152;SDS011;64897;50.816;4.422;2022-11-20T09:28:43;16.67;;;8.20;;
76152;SDS011;64897;50.816;4.422;2022-11-20T09:31:43;14.98;;;8.75;;
76152;SDS011;64897;50.816;4.422;2022-11-20T09:34:03;16.13;;;9.23;;
76152;SDS011;64897;50.816;4.422;2022-11-20T09:36:29;13.10;;;7.30;;
76152;SDS011;64897;50.816;4.422;2022-11-20T09:38:56;14.15;;;9.02;;
76152;SDS011;64897;50.816;4.422;2022-11-20T09:44:37;16.00;;;8.38;;
76152;SDS011;64897;50.816;4.422;2022-11-20T09:55:23;15.32;;;7.93;;
76152;SDS011;64897;50.816;4.422;2022-11-20T09:57:51;12.65;;;8.02;;
76152;SDS011;64897;50.816;4.422;2022-11-20T10:00:18;13.52;;;8.93;;
76152;SDS011;64897;50.816;4.422;2022-11-20T10:05:31;14.27;;;7.82;;
76152;SDS011;64897;50.816;4.422;2022-11-20T10:16:38;12.60;;;7.90;;
76152;SDS011;64897;50.816;4.422;2022-11-20T10:19:32;13.35;;;8.07;;
76152;SDS011;64897;50.816;4.422;2022-11-20T10:27:39;14.68;;;8.18;;
76152;SDS011;64897;50.816;4.422;2022-11-20T10:30:27;14.52;;;8.73;;
76152;SDS011;64897;50.816;4.422;2022-11-20T10:32:58;13.38;;;7.72;;
76152;SDS011;64897;50.816;4.422;2022-11-20T10:35:44;16.40;;;8.68;;
76152;SDS011;64897;50.816;4.422;2022-11-20T10:38:21;17.48;;;8.90;;
76152;SDS011;64897;50.816;4.422;2022-11-20T10:41:08;13.68;;;7.22;;
76152;SDS011;64897;50.816;4.422;2022-11-20T10:43:53;13.48;;;7.38;;
76152;SDS011;64897;50.816;4.422;2022-11-20T10:46:32;14.15;;;8.40;;
76152;SDS011;64897;50.816;4.422;2022-11-20T10:49:11;11.50;;;6.57;;
76152;SDS011;64897;50.816;4.422;2022-11-20T11:00:08;13.25;;;7.13;;
76152;SDS011;64897;50.816;4.422;2022-11-20T11:05:10;11.63;;;7.45;;
76152;SDS011;64897;50.816;4.422;2022-11-20T11:07:58;11.40;;;6.43;;
76152;SDS011;64897;50.816;4.422;2022-11-20T11:10:31;12.52;;;6.82;;
76152;SDS011;64897;50.816;4.422;2022-11-20T11:13:26;11.15;;;6.63;;
76152;SDS011;64897;50.816;4.422;2022-11-20T11:15:54;10.95;;;6.38;;
76152;SDS011;64897;50.816;4.422;2022-11-20T11:18:27;10.88;;;6.88;;
76152;SDS011;64897;50.816;4.422;2022-11-20T11:20:56;11.60;;;6.63;;
76152;SDS011;64897;50.816;4.422;2022-11-20T11:26:04;9.77;;;6.05;;
76152;SDS011;64897;50.816;4.422;2022-11-20T11:28:32;10.45;;;5.78;;
76152;SDS011;64897;50.816;4.422;2022-11-20T11:30:59;9.95;;;6.28;;
76152;SDS011;64897;50.816;4.422;2022-11-20T11:33:32;10.68;;;5.75;;
76152;SDS011;64897;50.816;4.422;2022-11-20T11:36:02;10.05;;;6.50;;
76152;SDS011;64897;50.816;4.422;2022-11-20T11:38:42;11.15;;;6.45;;
76152;SDS011;64897;50.816;4.422;2022-11-20T11:41:12;10.95;;;5.65;;
76152;SDS011;64897;50.816;4.422;2022-11-20T11:43:54;11.85;;;6.03;;
76152;SDS011;64897;50.816;4.422;2022-11-20T11:46:54;9.77;;;7.03;;
76152;SDS011;64897;50.816;4.422;2022-11-20T11:49:22;10.68;;;5.43;;
76152;SDS011;64897;50.816;4.422;2022-11-20T11:52:00;8.40;;;5.43;;
76152;SDS011;64897;50.816;4.422;2022-11-20T11:57:14;8.10;;;4.72;;
76152;SDS011;64897;50.816;4.422;2022-11-20T12:02:31;8.82;;;4.72;;
76152;SDS011;64897;50.816;4.422;2022-11-20T12:08:14;10.90;;;5.72;;
76152;SDS011;64897;50.816;4.422;2022-11-20T12:16:33;12.90;;;4.47;;
76152;SDS011;64897;50.816;4.422;2022-11-20T12:19:04;9.07;;;4.47;;
76152;SDS011;64897;50.816;4.422;2022-11-20T12:21:45;10.18;;;4.57;;
76152;SDS011;64897;50.816;4.422;2022-11-20T12:27:40;7.82;;;4.60;;
76152;SDS011;64897;50.816;4.422;2022-11-20T12:30:18;8.27;;;4.13;;
76152;SDS011;64897;50.816;4.422;2022-11-20T12:44:57;9.98;;;5.03;;
76152;SDS011;64897;50.816;4.422;2022-11-20T12:50:28;7.13;;;4.57;;
76152;SDS011;64897;50.816;4.422;2022-11-20T12:55:56;10.95;;;6.45;;
76152;SDS011;64897;50.816;4.422;2022-11-20T13:01:40;9.23;;;4.60;;
76152;SDS011;64897;50.816;4.422;2022-11-20T13:07:05;8.52;;;4.85;;
76152;SDS011;64897;50.816;4.422;2022-11-20T13:09:36;8.43;;;4.93;;
76152;SDS011;64897;50.816;4.422;2022-11-20T13:12:11;6.97;;;4.35;;
76152;SDS011;64897;50.816;4.422;2022-11-20T13:19:57;8.57;;;4.65;;
76152;SDS011;64897;50.816;4.422;2022-11-20T13:22:25;8.18;;;4.63;;
76152;SDS011;64897;50.816;4.422;2022-11-20T13:24:53;8.75;;;4.80;;
76152;SDS011;64897;50.816;4.422;2022-11-20T13:27:21;8.32;;;4.55;;
76152;SDS011;64897;50.816;4.422;2022-11-20T13:29:59;8.23;;;4.38;;
76152;SDS011;64897;50.816;4.422;2022-11-20T13:32:47;6.80;;;4.18;;
76152;SDS011;64897;50.816;4.422;2022-11-20T13:35:33;5.78;;;3.75;;
76152;SDS011;64897;50.816;4.422;2022-11-20T13:40:31;7.18;;;4.75;;
76152;SDS011;64897;50.816;4.422;2022-11-20T13:43:02;6.93;;;4.05;;
76152;SDS011;64897;50.816;4.422;2022-11-20T13:45:53;8.40;;;4.25;;
76152;SDS011;64897;50.816;4.422;2022-11-20T13:48:34;9.40;;;4.68;;
76152;SDS011;64897;50.816;4.422;2022-11-20T13:56:43;7.43;;;4.10;;
76152;SDS011;64897;50.816;4.422;2022-11-20T14:02:20;5.60;;;3.72;;
76152;SDS011;64897;50.816;4.422;2022-11-20T14:04:49;7.50;;;4.07;;
76152;SDS011;64897;50.816;4.422;2022-11-20T14:07:19;6.00;;;3.88;;
76152;SDS011;64897;50.816;4.422;2022-11-20T14:09:50;8.30;;;4.00;;
76152;SDS011;64897;50.816;4.422;2022-11-20T14:12:22;7.38;;;3.97;;
76152;SDS011;64897;50.816;4.422;2022-11-20T14:14:53;8.15;;;3.90;;
76152;SDS011;64897;50.816;4.422;2022-11-20T14:17:22;7.18;;;4.40;;
76152;SDS011;64897;50.816;4.422;2022-11-20T14:19:51;7.70;;;3.55;;
76152;SDS011;64897;50.816;4.422;2022-11-20T14:24:47;6.85;;;4.10;;
76152;SDS011;64897;50.816;4.422;2022-11-20T14:27:26;7.28;;;3.45;;
76152;SDS011;64897;50.816;4.422;2022-11-20T14:29:53;6.22;;;3.67;;
76152;SDS011;64897;50.816;4.422;2022-11-20T14:32:21;8.13;;;3.60;;
76152;SDS011;64897;50.816;4.422;2022-11-20T14:34:53;5.90;;;3.50;;
76152;SDS011;64897;50.816;4.422;2022-11-20T14:37:21;9.43;;;4.15;;
76152;SDS011;64897;50.816;4.422;2022-11-20T14:39:51;7.70;;;3.85;;
76152;SDS011;64897;50.816;4.422;2022-11-20T14:42:21;4.95;;;3.40;;
76152;SDS011;64897;50.816;4.422;2022-11-20T14:44:50;6.15;;;3.42;;
76152;SDS011;64897;50.816;4.422;2022-11-20T14:47:25;8.40;;;3.38;;
76152;SDS011;64897;50.816;4.422;2022-11-20T14:49:54;5.95;;;3.72;;
76152;SDS011;64897;50.816;4.422;2022-11-20T14:52:23;6.22;;;3.17;;
76152;SDS011;64897;50.816;4.422;2022-11-20T14:54:55;5.75;;;3.22;;
76152;SDS011;64897;50.816;4.422;2022-11-20T14:57:28;5.50;;;3.60;;
76152;SDS011;64897;50.816;4.422;2022-11-20T15:02:55;12.75;;;3.90;;
76152;SDS011;64897;50.816;4.422;2022-11-20T15:05:23;5.93;;;3.78;;
76152;SDS011;64897;50.816;4.422;2022-11-20T15:08:04;6.20;;;3.58;;
76152;SDS011;64897;50.816;4.422;2022-11-20T15:10:34;5.45;;;3.63;;
76152;SDS011;64897;50.816;4.422;2022-11-20T15:13:02;5.47;;;3.55;;
76152;SDS011;64897;50.816;4.422;2022-11-20T15:15:56;5.57;;;3.53;;
76152;SDS011;64897;50.816;4.422;2022-11-20T15:18:36;6.45;;;3.22;;
76152;SDS011;64897;50.816;4.422;2022-11-20T15:21:10;6.25;;;3.40;;
76152;SDS011;64897;50.816;4.422;2022-11-20T15:23:42;5.63;;;3.33;;
76152;SDS011;64897;50.816;4.422;2022-11-20T15:26:10;6.72;;;3.22;;
76152;SDS011;64897;50.816;4.422;2022-11-20T15:28:44;6.57;;;3.75;;
76152;SDS011;64897;50.816;4.422;2022-11-20T15:31:14;5.55;;;3.72;;
76152;SDS011;64897;50.816;4.422;2022-11-20T15:33:43;5.65;;;3.17;;
76152;SDS011;64897;50.816;4.422;2022-11-20T15:36:10;6.47;;;3.28;;
76152;SDS011;64897;50.816;4.422;2022-11-20T15:38:36;6.85;;;3.78;;
76152;SDS011;64897;50.816;4.422;2022-11-20T15:41:04;6.28;;;3.33;;
76152;SDS011;64897;50.816;4.422;2022-11-20T15:43:31;6.10;;;3.60;;
76152;SDS011;64897;50.816;4.422;2022-11-20T15:46:21;6.30;;;3.38;;
76152;SDS011;64897;50.816;4.422;2022-11-20T15:48:51;6.57;;;3.53;;
76152;SDS011;64897;50.816;4.422;2022-11-20T15:51:26;5.50;;;3.33;;
76152;SDS011;64897;50.816;4.422;2022-11-20T15:53:58;5.28;;;3.15;;
76152;SDS011;64897;50.816;4.422;2022-11-20T15:56:25;4.95;;;3.38;;
76152;SDS011;64897;50.816;4.422;2022-11-20T15:58:52;6.72;;;3.75;;
76152;SDS011;64897;50.816;4.422;2022-11-20T16:01:19;7.57;;;3.33;;
76152;SDS011;64897;50.816;4.422;2022-11-20T16:03:47;8.20;;;3.80;;
76152;SDS011;64897;50.816;4.422;2022-11-20T16:06:15;4.95;;;3.10;;
76152;SDS011;64897;50.816;4.422;2022-11-20T16:08:41;4.95;;;3.47;;
76152;SDS011;64897;50.816;4.422;2022-11-20T16:11:10;4.60;;;3.08;;
76152;SDS011;64897;50.816;4.422;2022-11-20T16:13:41;7.22;;;3.42;;
76152;SDS011;64897;50.816;4.422;2022-11-20T16:16:32;6.53;;;3.78;;
76152;SDS011;64897;50.816;4.422;2022-11-20T16:19:01;4.93;;;3.60;;
76152;SDS011;64897;50.816;4.422;2022-11-20T16:21:28;6.18;;;3.45;;
76152;SDS011;64897;50.816;4.422;2022-11-20T16:23:58;5.63;;;3.20;;
76152;SDS011;64897;50.816;4.422;2022-11-20T16:26:29;6.10;;;3.55;;
76152;SDS011;64897;50.816;4.422;2022-11-20T16:28:58;5.82;;;3.60;;
76152;SDS011;64897;50.816;4.422;2022-11-20T16:31:25;4.90;;;3.13;;
76152;SDS011;64897;50.816;4.422;2022-11-20T16:33:52;4.90;;;2.90;;
76152;SDS011;64897;50.816;4.422;2022-11-20T16:36:21;4.65;;;3.00;;
76152;SDS011;64897;50.816;4.422;2022-11-20T16:38:56;5.22;;;3.30;;
76152;SDS011;64897;50.816;4.422;2022-11-20T16:41:27;5.57;;;2.88;;
76152;SDS011;64897;50.816;4.422;2022-11-20T16:43:57;5.05;;;2.92;;
76152;SDS011;64897;50.816;4.422;2022-11-20T16:46:26;5.50;;;3.00;;
76152;SDS011;64897;50.816;4.422;2022-11-20T16:51:23;5.97;;;3.22;;
76152;SDS011;64897;50.816;4.422;2022-11-20T16:53:51;4.60;;;2.97;;
76152;SDS011;64897;50.816;4.422;2022-11-20T16:56:20;5.35;;;3.28;;
76152;SDS011;64897;50.816;4.422;2022-11-20T16:58:49;6.40;;;3.60;;
76152;SDS011;64897;50.816;4.422;2022-11-20T17:01:17;5.65;;;3.47;;